createdAt,value
2018-09-12T00:02:08.713Z,99.90
2018-09-12T00:04:37.451Z,99.90
2018-09-12T00:07:05.935Z,99.90
2018-09-12T00:09:34.170Z,99.90
2018-09-12T00:12:02.402Z,99.90
2018-09-12T00:14:30.866Z,99.90
2018-09-12T00:16:59.121Z,99.90
2018-09-12T00:19:27.574Z,99.90
2018-09-12T00:21:56.357Z,99.90
2018-09-12T00:24:24.603Z,99.90
2018-09-12T00:26:52.858Z,99.90
2018-09-12T00:29:21.110Z,99.90
2018-09-12T00:31:49.882Z,99.90
2018-09-12T00:34:18.152Z,99.90
2018-09-12T00:36:46.390Z,99.90
2018-09-12T00:39:15.481Z,99.90
2018-09-12T00:41:44.142Z,99.90
2018-09-12T00:44:12.361Z,99.90
2018-09-12T00:46:41.334Z,99.90
2018-09-12T00:49:09.565Z,99.90
2018-09-12T00:51:39.119Z,99.90
2018-09-12T00:54:07.452Z,99.90
2018-09-12T00:56:42.538Z,99.90
2018-09-12T00:59:11.670Z,99.90
2018-09-12T01:01:39.974Z,99.90
2018-09-12T01:04:09.169Z,99.90
2018-09-12T01:06:37.943Z,99.90
2018-09-12T01:09:06.742Z,99.90
2018-09-12T01:11:35.555Z,99.90
2018-09-12T01:14:03.898Z,99.90
2018-09-12T01:16:33.949Z,99.90
2018-09-12T01:19:02.275Z,99.90
2018-09-12T01:21:30.589Z,99.90
2018-09-12T01:23:59.136Z,99.90
2018-09-12T01:26:27.503Z,99.90
2018-09-12T01:28:55.945Z,99.90
2018-09-12T01:31:24.445Z,99.90
2018-09-12T01:33:52.681Z,99.90
2018-09-12T01:36:20.951Z,99.90
2018-09-12T01:38:50.347Z,99.90
2018-09-12T01:41:19.091Z,99.90
2018-09-12T01:43:47.609Z,99.90
2018-09-12T01:46:16.323Z,99.90
2018-09-12T01:48:44.862Z,99.90
2018-09-12T01:51:19.462Z,99.90
2018-09-12T01:53:47.725Z,99.90
2018-09-12T01:56:15.969Z,99.90
2018-09-12T01:58:44.235Z,99.90
2018-09-12T02:01:12.496Z,99.90
2018-09-12T02:03:41.414Z,99.90
2018-09-12T02:06:10.385Z,99.90
2018-09-12T02:08:38.634Z,99.90
2018-09-12T02:11:06.946Z,99.90
2018-09-12T02:13:35.244Z,99.90
2018-09-12T02:16:04.034Z,99.90
2018-09-12T02:18:32.297Z,99.90
2018-09-12T02:21:00.531Z,99.90
2018-09-12T02:23:28.789Z,99.90
2018-09-12T02:25:57.089Z,99.90
2018-09-12T02:28:30.694Z,99.90
2018-09-12T02:30:58.978Z,99.90
2018-09-12T02:33:27.306Z,99.90
2018-09-12T02:36:01.020Z,99.90
2018-09-12T02:38:30.290Z,99.90
2018-09-12T02:40:59.376Z,99.90
2018-09-12T02:43:27.632Z,99.90
2018-09-12T02:45:56.112Z,99.90
2018-09-12T02:48:24.376Z,99.90
2018-09-12T02:50:58.310Z,99.90
2018-09-12T02:53:26.830Z,99.90
2018-09-12T02:55:55.078Z,99.90
2018-09-12T02:58:23.366Z,99.90
2018-09-12T03:00:59.062Z,99.90
2018-09-12T03:03:27.502Z,99.90
2018-09-12T03:05:56.591Z,99.90
2018-09-12T03:08:24.861Z,99.90
2018-09-12T03:10:53.140Z,99.90
2018-09-12T03:13:21.639Z,99.90
2018-09-12T03:15:49.938Z,99.90
2018-09-12T03:18:18.858Z,99.90
2018-09-12T03:20:47.201Z,99.90
2018-09-12T03:23:15.398Z,99.90
2018-09-12T03:25:43.670Z,99.90
2018-09-12T03:28:11.941Z,99.90
2018-09-12T03:30:41.024Z,99.90
2018-09-12T03:33:09.362Z,99.90
2018-09-12T03:35:37.725Z,99.90
2018-09-12T03:38:06.658Z,99.90
2018-09-12T03:40:35.412Z,99.90
2018-09-12T03:43:04.075Z,99.90
2018-09-12T03:45:32.326Z,99.90
2018-09-12T03:48:00.640Z,99.90
2018-09-12T03:50:28.889Z,99.90
2018-09-12T03:52:57.719Z,99.90
2018-09-12T03:55:25.992Z,99.90
2018-09-12T03:57:54.283Z,99.90
2018-09-12T04:00:22.682Z,99.90
2018-09-12T04:05:32.590Z,99.90
2018-09-12T04:08:00.830Z,99.90
2018-09-12T04:10:29.083Z,99.90
2018-09-12T04:12:57.870Z,99.90
2018-09-12T04:15:26.169Z,99.90
2018-09-12T04:17:55.053Z,99.90
2018-09-12T04:20:23.314Z,99.90
2018-09-12T04:22:51.615Z,99.90
2018-09-12T04:25:20.006Z,99.90
2018-09-12T04:27:48.335Z,99.90
2018-09-12T04:30:16.712Z,99.90
2018-09-12T04:32:45.141Z,99.90
2018-09-12T04:35:14.463Z,99.90
2018-09-12T04:37:48.703Z,99.90
2018-09-12T04:40:17.593Z,99.90
2018-09-12T04:42:45.922Z,99.90
2018-09-12T04:45:14.123Z,99.90
2018-09-12T04:47:42.394Z,99.90
2018-09-12T04:50:10.646Z,99.90
2018-09-12T04:52:39.394Z,99.90
2018-09-12T04:55:07.990Z,99.90
2018-09-12T04:57:36.869Z,99.90
2018-09-12T05:00:05.118Z,99.90
2018-09-12T05:02:33.435Z,99.90
2018-09-12T05:05:01.714Z,99.90
2018-09-12T05:07:30.532Z,99.90
2018-09-12T05:09:58.819Z,99.90
2018-09-12T05:12:27.481Z,99.90
2018-09-12T05:14:55.945Z,99.90
2018-09-12T05:17:24.218Z,99.90
2018-09-12T05:19:52.537Z,99.90
2018-09-12T05:22:20.836Z,99.90
2018-09-12T05:24:49.551Z,99.90
2018-09-12T05:27:17.815Z,99.90
2018-09-12T05:29:46.135Z,99.90
2018-09-12T05:32:14.502Z,99.90
2018-09-12T05:34:42.762Z,99.90
2018-09-12T05:37:11.110Z,99.90
2018-09-12T05:39:40.007Z,99.90
2018-09-12T05:42:08.302Z,99.90
2018-09-12T05:44:36.562Z,99.90
2018-09-12T05:47:04.874Z,99.90
2018-09-12T05:49:33.133Z,99.90
2018-09-12T05:52:01.953Z,99.90
2018-09-12T05:54:30.946Z,99.90
2018-09-12T05:56:59.226Z,99.90
2018-09-12T05:59:27.494Z,99.90
2018-09-12T06:02:02.275Z,99.90
2018-09-12T06:04:32.021Z,99.90
2018-09-12T06:07:00.997Z,99.90
2018-09-12T06:09:29.560Z,99.90
2018-09-12T06:11:57.838Z,99.90
2018-09-12T06:14:26.528Z,99.90
2018-09-12T06:16:54.851Z,99.90
2018-09-12T06:19:23.149Z,99.90
2018-09-12T06:21:51.846Z,99.90
2018-09-12T06:24:20.114Z,99.90
2018-09-12T06:26:48.395Z,99.90
2018-09-12T06:29:16.818Z,99.90
2018-09-12T06:31:45.170Z,99.90
2018-09-12T06:34:13.547Z,99.90
2018-09-12T06:36:41.986Z,99.90
2018-09-12T06:39:12.168Z,99.90
2018-09-12T06:41:40.907Z,99.90
2018-09-12T06:44:09.380Z,99.90
2018-09-12T06:46:37.758Z,99.90
2018-09-12T06:49:07.053Z,99.90
2018-09-12T06:51:35.581Z,99.90
2018-09-12T06:54:04.034Z,99.90
2018-09-12T06:56:33.245Z,99.90
2018-09-12T06:59:01.539Z,99.90
2018-09-12T07:01:29.812Z,99.90
2018-09-12T07:03:58.229Z,99.90
2018-09-12T07:06:27.194Z,99.90
2018-09-12T07:08:55.839Z,99.90
2018-09-12T07:11:24.629Z,99.90
2018-09-12T07:13:53.429Z,99.90
2018-09-12T07:16:21.705Z,99.90
2018-09-12T07:18:50.039Z,99.90
2018-09-12T07:21:18.353Z,99.90
2018-09-12T07:23:46.727Z,99.90
2018-09-12T07:26:15.066Z,99.90
2018-09-12T07:28:43.357Z,99.90
2018-09-12T07:31:11.639Z,99.90
2018-09-12T07:33:39.920Z,99.90
2018-09-12T07:36:08.160Z,99.90
2018-09-12T07:38:43.755Z,99.90
2018-09-12T07:41:12.318Z,99.90
2018-09-12T07:43:40.595Z,99.90
2018-09-12T07:46:09.227Z,99.90
2018-09-12T07:48:37.514Z,99.90
2018-09-12T07:51:06.300Z,99.90
2018-09-12T07:53:34.725Z,98.40
2018-09-12T07:56:03.079Z,98.00
2018-09-12T07:58:31.301Z,98.00
2018-09-12T08:01:07.385Z,96.10
2018-09-12T08:03:35.695Z,94.90
2018-09-12T08:06:04.348Z,93.60
2018-09-12T08:08:32.587Z,92.00
2018-09-12T08:11:00.834Z,91.90
2018-09-12T08:13:29.289Z,89.40
2018-09-12T08:15:57.554Z,88.50
2018-09-12T08:18:25.798Z,87.30
2018-09-12T08:20:54.062Z,84.10
2018-09-12T08:23:22.385Z,77.60
2018-09-12T08:25:50.713Z,77.30
2018-09-12T08:28:19.487Z,73.60
2018-09-12T08:30:47.753Z,69.40
2018-09-12T08:33:16.051Z,71.30
2018-09-12T08:35:44.295Z,67.20
2018-09-12T08:38:12.936Z,71.00
2018-09-12T08:40:41.594Z,73.20
2018-09-12T08:43:09.854Z,66.70
2018-09-12T08:45:38.689Z,65.20
2018-09-12T08:48:07.038Z,67.50
2018-09-12T08:50:35.512Z,64.80
2018-09-12T08:53:04.011Z,62.60
2018-09-12T08:55:32.234Z,61.00
2018-09-12T08:58:00.753Z,58.60
2018-09-12T09:00:35.935Z,62.50
2018-09-12T09:03:06.354Z,60.80
2018-09-12T09:05:35.286Z,58.60
2018-09-12T09:08:03.738Z,58.20
2018-09-12T09:10:32.037Z,57.10
2018-09-12T09:13:00.904Z,55.30
2018-09-12T09:15:29.142Z,56.30
2018-09-12T09:17:57.376Z,57.00
2018-09-12T09:20:26.093Z,56.70
2018-09-12T09:22:55.165Z,56.60
2018-09-12T09:25:25.245Z,56.50
2018-09-12T09:27:54.627Z,56.00
2018-09-12T09:30:26.820Z,53.40
2018-09-12T09:32:55.133Z,51.80
2018-09-12T09:35:23.881Z,51.50
2018-09-12T09:37:52.502Z,50.20
2018-09-12T09:40:21.268Z,51.40
2018-09-12T09:42:49.565Z,48.60
2018-09-12T09:45:25.557Z,48.00
2018-09-12T09:47:53.874Z,49.30
2018-09-12T09:50:22.359Z,48.80
2018-09-12T09:52:50.840Z,47.70
2018-09-12T09:55:19.091Z,47.60
2018-09-12T09:57:47.316Z,49.30
2018-09-12T10:00:21.227Z,48.30
2018-09-12T10:02:54.650Z,49.70
2018-09-12T10:08:05.226Z,49.20
2018-09-12T10:10:33.502Z,47.30
2018-09-12T10:13:02.185Z,46.20
2018-09-12T10:15:30.430Z,44.40
2018-09-12T10:17:58.687Z,45.40
2018-09-12T10:20:26.997Z,45.20
2018-09-12T10:22:55.790Z,43.80
2018-09-12T10:25:24.010Z,43.90
2018-09-12T10:27:52.280Z,43.80
2018-09-12T10:30:20.566Z,44.20
2018-09-12T10:32:49.107Z,42.70
2018-09-12T10:35:17.349Z,43.60
2018-09-12T10:37:50.054Z,42.60
2018-09-12T10:40:18.654Z,43.20
2018-09-12T10:42:47.264Z,42.70
2018-09-12T10:45:15.946Z,42.80
2018-09-12T10:47:44.286Z,42.90
2018-09-12T10:50:12.639Z,44.70
2018-09-12T10:52:41.314Z,42.40
2018-09-12T10:55:09.538Z,42.70
2018-09-12T10:57:38.102Z,43.70
2018-09-12T11:00:07.283Z,45.10
2018-09-12T11:02:35.533Z,42.10
2018-09-12T11:05:03.841Z,42.00
2018-09-12T11:07:32.705Z,43.70
2018-09-12T11:10:01.143Z,44.10
2018-09-12T11:12:29.387Z,42.00
2018-09-12T11:14:58.145Z,44.10
2018-09-12T11:17:26.965Z,43.10
2018-09-12T11:19:55.190Z,41.80
2018-09-12T11:22:23.968Z,43.90
2018-09-12T11:24:52.236Z,44.90
2018-09-12T11:27:21.088Z,44.30
2018-09-12T11:29:50.605Z,43.80
2018-09-12T11:32:18.879Z,45.60
2018-09-12T11:34:47.407Z,46.50
2018-09-12T11:37:15.642Z,44.10
2018-09-12T11:39:44.233Z,45.50
2018-09-12T11:42:12.464Z,44.80
2018-09-12T11:44:40.689Z,45.20
2018-09-12T11:47:08.950Z,47.50
2018-09-12T11:49:37.682Z,47.40
2018-09-12T11:52:06.412Z,47.50
2018-09-12T11:54:34.652Z,47.30
2018-09-12T11:57:02.885Z,46.90
2018-09-12T11:59:31.797Z,49.50
2018-09-12T12:02:00.150Z,47.30
2018-09-12T12:04:28.357Z,48.20
2018-09-12T12:06:56.695Z,49.40
2018-09-12T12:09:24.962Z,45.20
2018-09-12T12:11:53.494Z,47.70
2018-09-12T12:14:22.162Z,45.00
2018-09-12T12:16:50.804Z,44.20
2018-09-12T12:19:19.750Z,47.10
2018-09-12T12:24:28.811Z,46.60
2018-09-12T12:26:57.060Z,48.10
2018-09-12T12:29:25.363Z,45.90
2018-09-12T12:31:53.626Z,45.20
2018-09-12T12:34:22.477Z,47.60
2018-09-12T12:36:50.730Z,48.70
2018-09-12T12:39:19.146Z,46.40
2018-09-12T12:41:47.622Z,46.40
2018-09-12T12:44:16.282Z,45.10
2018-09-12T12:46:44.938Z,44.40
2018-09-12T12:49:13.678Z,46.30
2018-09-12T12:51:42.405Z,48.60
2018-09-12T12:54:10.659Z,42.90
2018-09-12T12:56:38.920Z,45.00
2018-09-12T12:59:07.423Z,44.40
2018-09-12T13:01:35.726Z,44.60
2018-09-12T13:04:04.058Z,42.60
2018-09-12T13:06:32.481Z,41.80
2018-09-12T13:09:00.919Z,44.20
2018-09-12T13:11:29.818Z,39.80
2018-09-12T13:13:58.418Z,39.60
2018-09-12T13:16:26.889Z,40.00
2018-09-12T13:18:55.164Z,39.30
2018-09-12T13:21:23.445Z,38.60
2018-09-12T13:23:52.052Z,37.70
2018-09-12T13:26:20.305Z,38.40
2018-09-12T13:28:49.130Z,34.90
2018-09-12T13:31:17.441Z,33.00
2018-09-12T13:33:45.718Z,35.20
2018-09-12T13:36:14.056Z,35.10
2018-09-12T13:38:44.098Z,35.40
2018-09-12T13:41:12.341Z,34.40
2018-09-12T13:43:40.575Z,34.20
2018-09-12T13:46:08.871Z,32.50
2018-09-12T13:48:37.622Z,32.80
2018-09-12T13:51:07.258Z,32.70
2018-09-12T13:53:36.158Z,32.90
2018-09-12T13:56:04.421Z,35.00
2018-09-12T13:58:32.938Z,37.90
2018-09-12T14:01:01.190Z,38.00
2018-09-12T14:03:29.442Z,39.40
2018-09-12T14:05:57.694Z,40.00
2018-09-12T14:08:25.925Z,39.80
2018-09-12T14:10:54.713Z,40.60
2018-09-12T14:13:23.310Z,42.90
2018-09-12T14:15:51.850Z,43.30
2018-09-12T14:18:20.630Z,44.30
2018-09-12T14:20:48.887Z,44.30
2018-09-12T14:23:17.633Z,46.00
2018-09-12T14:25:45.955Z,46.50
2018-09-12T14:28:14.198Z,44.50
2018-09-12T14:30:42.473Z,45.90
2018-09-12T14:33:11.025Z,44.50
2018-09-12T14:35:39.319Z,46.20
2018-09-12T14:38:08.046Z,47.60
2018-09-12T14:40:36.633Z,46.90
2018-09-12T14:43:05.240Z,48.00
2018-09-12T14:45:33.493Z,47.20
2018-09-12T14:48:01.824Z,49.10
2018-09-12T14:50:30.123Z,45.60
2018-09-12T14:52:58.597Z,47.10
2018-09-12T14:55:26.885Z,47.90
2018-09-12T14:57:55.236Z,47.30
2018-09-12T15:00:26.349Z,49.30
2018-09-12T15:02:55.382Z,46.60
2018-09-12T15:05:24.375Z,46.70
2018-09-12T15:07:52.662Z,47.30
2018-09-12T15:10:21.251Z,48.30
2018-09-12T15:12:50.089Z,46.70
2018-09-12T15:15:18.421Z,50.20
2018-09-12T15:17:46.904Z,48.70
2018-09-12T15:20:16.230Z,48.80
2018-09-12T15:22:45.118Z,50.60
2018-09-12T15:25:14.812Z,49.80
2018-09-12T15:27:43.078Z,51.50
2018-09-12T15:30:11.683Z,49.90
2018-09-12T15:32:40.154Z,49.90
2018-09-12T15:35:08.443Z,50.00
2018-09-12T15:37:36.749Z,52.10
2018-09-12T15:40:05.235Z,50.20
2018-09-12T15:42:34.570Z,51.20
2018-09-12T15:45:02.835Z,51.10
2018-09-12T15:47:31.076Z,50.00
2018-09-12T15:49:59.350Z,50.80
2018-09-12T15:52:28.042Z,52.30
2018-09-12T15:54:56.374Z,49.20
2018-09-12T15:57:25.182Z,51.90
2018-09-12T15:59:53.754Z,51.70
2018-09-12T16:02:22.020Z,51.30
2018-09-12T16:04:50.337Z,50.80
2018-09-12T16:07:18.599Z,52.20
2018-09-12T16:09:46.872Z,48.80
2018-09-12T16:12:15.202Z,50.30
2018-09-12T16:14:44.027Z,48.40
2018-09-12T16:17:12.315Z,49.70
2018-09-12T16:19:40.561Z,49.40
2018-09-12T16:22:15.422Z,49.70
2018-09-12T16:27:23.157Z,50.50
2018-09-12T16:29:51.458Z,50.80
2018-09-12T16:32:20.209Z,49.70
2018-09-12T16:34:48.595Z,52.20
2018-09-12T16:37:16.853Z,53.00
2018-09-12T16:39:45.393Z,51.90
2018-09-12T16:42:13.938Z,51.50
2018-09-12T16:44:42.598Z,50.80
2018-09-12T16:47:12.027Z,52.40
2018-09-12T16:49:40.662Z,50.60
2018-09-12T16:52:09.314Z,52.50
2018-09-12T16:54:37.558Z,53.90
2018-09-12T16:57:06.014Z,52.80
2018-09-12T16:59:34.264Z,52.20
2018-09-12T17:02:02.544Z,54.50
2018-09-12T17:04:30.818Z,54.40
2018-09-12T17:06:59.086Z,54.00
2018-09-12T17:09:27.453Z,54.90
2018-09-12T17:11:55.922Z,54.40
2018-09-12T17:14:24.536Z,54.40
2018-09-12T17:16:53.029Z,54.50
2018-09-12T17:19:21.342Z,54.60
2018-09-12T17:21:49.640Z,55.30
2018-09-12T17:24:20.897Z,55.30
2018-09-12T17:26:49.136Z,56.40
2018-09-12T17:29:17.365Z,56.40
2018-09-12T17:31:45.918Z,56.50
2018-09-12T17:34:14.447Z,57.50
2018-09-12T19:30:55.927Z,86.00
2018-09-12T19:33:24.474Z,86.30
2018-09-12T19:35:52.831Z,87.00
2018-09-12T19:38:22.728Z,88.40
2018-09-12T19:40:51.430Z,89.60
2018-09-12T19:43:19.663Z,90.00
2018-09-12T19:45:47.931Z,90.40
2018-09-12T19:50:43.672Z,90.70
2018-09-12T19:53:12.388Z,91.10
2018-09-12T19:55:41.358Z,92.10
2018-09-12T19:58:09.601Z,91.90
2018-09-12T20:03:05.178Z,92.50
2018-09-12T20:05:34.024Z,94.30
2018-09-12T20:08:02.247Z,95.40
2018-09-12T20:10:30.523Z,95.80
2018-09-12T20:12:59.329Z,96.20
2018-09-12T20:15:27.565Z,96.70
2018-09-12T20:17:55.839Z,97.10
2018-09-12T20:20:24.093Z,98.00
2018-09-12T20:22:52.942Z,98.10
2018-09-12T20:25:21.246Z,98.60
2018-09-12T20:27:49.510Z,99.40
2018-09-12T20:30:18.353Z,99.80
2018-09-12T20:32:47.058Z,99.60
2018-09-12T20:35:15.298Z,99.90
2018-09-12T20:37:49.411Z,99.90
2018-09-12T20:40:18.247Z,99.90
2018-09-12T20:42:46.974Z,99.90
2018-09-12T20:47:49.688Z,99.90
2018-09-12T20:50:18.197Z,99.90
2018-09-12T20:52:47.044Z,99.90
2018-09-12T20:55:15.305Z,99.90
2018-09-12T20:57:44.305Z,99.90
2018-09-12T21:00:12.563Z,99.90
2018-09-12T21:05:16.207Z,99.90
2018-09-12T21:07:44.594Z,99.90
2018-09-12T21:10:12.946Z,99.90
2018-09-12T21:12:46.376Z,99.90
2018-09-12T21:15:14.613Z,99.90
2018-09-12T21:20:23.322Z,99.90
2018-09-12T21:22:52.158Z,99.90
2018-09-12T21:25:20.933Z,99.90
2018-09-12T21:27:49.195Z,99.90
2018-09-12T21:30:17.802Z,99.90
2018-09-12T21:32:46.714Z,99.90
2018-09-12T21:35:15.001Z,99.90
2018-09-12T21:37:49.652Z,99.90
2018-09-12T21:40:18.120Z,99.90
2018-09-12T21:42:46.521Z,99.90
2018-09-12T21:45:14.813Z,99.90
2018-09-12T21:47:43.075Z,99.90
2018-09-12T21:50:11.359Z,99.90
2018-09-12T21:52:39.785Z,99.90
2018-09-12T21:55:08.245Z,99.90
2018-09-12T21:57:36.510Z,99.90
2018-09-12T22:00:05.770Z,99.90
2018-09-12T22:02:34.062Z,99.90
2018-09-12T22:05:02.321Z,99.90
2018-09-12T22:07:31.138Z,99.90
2018-09-12T22:09:59.503Z,99.90
2018-09-12T22:12:27.741Z,99.90
2018-09-12T22:14:56.555Z,99.90
2018-09-12T22:17:25.046Z,99.90
2018-09-12T22:19:53.578Z,99.90
2018-09-12T22:22:22.277Z,99.90
2018-09-12T22:24:51.134Z,99.90
2018-09-12T22:27:19.393Z,99.90
2018-09-12T22:29:47.924Z,99.90
2018-09-12T22:32:16.165Z,99.90
2018-09-12T22:34:44.844Z,99.90
2018-09-12T22:37:13.130Z,99.90
2018-09-12T22:39:41.603Z,99.90
2018-09-12T22:42:09.917Z,99.90
2018-09-12T22:44:38.245Z,99.90
2018-09-12T22:47:06.554Z,99.90
2018-09-12T22:49:35.014Z,99.90
2018-09-12T22:52:03.557Z,99.90
2018-09-12T22:54:31.797Z,99.90
2018-09-12T22:57:00.048Z,99.90
2018-09-12T22:59:28.326Z,99.90
2018-09-12T23:01:56.585Z,99.90
2018-09-12T23:04:25.078Z,99.90
2018-09-12T23:06:53.398Z,99.90
2018-09-12T23:09:21.678Z,99.90
2018-09-12T23:11:49.958Z,99.90
2018-09-12T23:14:18.600Z,99.90
2018-09-12T23:16:46.848Z,99.90
2018-09-12T23:19:15.506Z,99.90
2018-09-12T23:21:43.776Z,99.90
2018-09-12T23:24:12.379Z,99.90
2018-09-12T23:26:40.621Z,99.90
2018-09-12T23:29:08.932Z,99.90
2018-09-12T23:31:37.446Z,99.90
2018-09-12T23:34:06.371Z,99.90
2018-09-12T23:36:34.602Z,99.90
2018-09-12T23:39:03.281Z,99.90
2018-09-12T23:41:31.546Z,99.90
2018-09-12T23:43:59.790Z,99.90
2018-09-12T23:46:28.050Z,99.90
2018-09-12T23:48:56.421Z,99.90
2018-09-12T23:53:58.862Z,99.90
2018-09-12T23:56:27.403Z,99.90
2018-09-12T23:58:55.645Z,99.90
